sensor_id;sensor_type;location;lat;lon;timestamp;temperature;humidity
37300;DHT22;23184;51.902;12.836;2023-12-22T00:01:12;4.80;99.90
37300;DHT22;23184;51.902;12.836;2023-12-22T00:03:41;4.80;99.90
37300;DHT22;23184;51.902;12.836;2023-12-22T00:06:07;4.60;99.90
37300;DHT22;23184;51.902;12.836;2023-12-22T00:08:32;4.60;99.90
37300;DHT22;23184;51.902;12.836;2023-12-22T00:10:58;4.40;99.90
37300;DHT22;23184;51.902;12.836;2023-12-22T00:13:24;4.30;99.90
37300;DHT22;23184;51.902;12.836;2023-12-22T00:15:49;4.20;99.90
37300;DHT22;23184;51.902;12.836;2023-12-22T00:18:15;4.10;99.90
37300;DHT22;23184;51.902;12.836;2023-12-22T00:20:40;4.20;99.90
37300;DHT22;23184;51.902;12.836;2023-12-22T00:23:06;4.10;99.90
37300;DHT22;23184;51.902;12.836;2023-12-22T00:25:31;4.10;99.90
37300;DHT22;23184;51.902;12.836;2023-12-22T00:27:57;4.20;99.90
37300;DHT22;23184;51.902;12.836;2023-12-22T00:30:22;4.20;99.90
37300;DHT22;23184;51.902;12.836;2023-12-22T00:32:49;4.20;99.90
37300;DHT22;23184;51.902;12.836;2023-12-22T00:35:15;4.20;99.90
37300;DHT22;23184;51.902;12.836;2023-12-22T00:37:40;4.20;99.90
37300;DHT22;23184;51.902;12.836;2023-12-22T00:40:06;4.20;99.90
37300;DHT22;23184;51.902;12.836;2023-12-22T00:42:33;4.30;99.90
37300;DHT22;23184;51.902;12.836;2023-12-22T00:44:58;4.30;99.90
37300;DHT22;23184;51.902;12.836;2023-12-22T00:47:24;4.20;99.90
37300;DHT22;23184;51.902;12.836;2023-12-22T00:49:49;4.20;99.90
37300;DHT22;23184;51.902;12.836;2023-12-22T00:52:15;4.20;99.90
37300;DHT22;23184;51.902;12.836;2023-12-22T00:54:40;4.30;99.90
37300;DHT22;23184;51.902;12.836;2023-12-22T00:57:06;4.30;99.90
37300;DHT22;23184;51.902;12.836;2023-12-22T00:59:31;4.30;99.90
37300;DHT22;23184;51.902;12.836;2023-12-22T01:01:57;4.20;99.90
37300;DHT22;23184;51.902;12.836;2023-12-22T01:04:22;4.10;99.90
37300;DHT22;23184;51.902;12.836;2023-12-22T01:06:48;4.10;99.90
37300;DHT22;23184;51.902;12.836;2023-12-22T01:09:13;4.20;99.90
37300;DHT22;23184;51.902;12.836;2023-12-22T01:11:40;4.20;99.90
37300;DHT22;23184;51.902;12.836;2023-12-22T01:14:06;4.20;99.90
37300;DHT22;23184;51.902;12.836;2023-12-22T01:16:32;4.20;99.90
37300;DHT22;23184;51.902;12.836;2023-12-22T01:18:58;4.30;99.90
37300;DHT22;23184;51.902;12.836;2023-12-22T01:21:23;4.30;99.90
37300;DHT22;23184;51.902;12.836;2023-12-22T01:23:49;4.30;99.90
37300;DHT22;23184;51.902;12.836;2023-12-22T01:26:14;4.20;99.90
37300;DHT22;23184;51.902;12.836;2023-12-22T01:28:40;4.20;99.90
37300;DHT22;23184;51.902;12.836;2023-12-22T01:31:05;4.00;99.90
37300;DHT22;23184;51.902;12.836;2023-12-22T01:33:31;4.00;99.90
37300;DHT22;23184;51.902;12.836;2023-12-22T01:35:56;4.10;99.90
37300;DHT22;23184;51.902;12.836;2023-12-22T01:38:22;4.00;99.90
37300;DHT22;23184;51.902;12.836;2023-12-22T01:40:47;3.90;99.90
37300;DHT22;23184;51.902;12.836;2023-12-22T01:43:13;3.90;99.90
37300;DHT22;23184;51.902;12.836;2023-12-22T01:45:40;3.90;99.90
37300;DHT22;23184;51.902;12.836;2023-12-22T01:48:09;3.80;99.90
37300;DHT22;23184;51.902;12.836;2023-12-22T01:50:34;3.80;99.90
37300;DHT22;23184;51.902;12.836;2023-12-22T01:53:01;3.80;99.90
37300;DHT22;23184;51.902;12.836;2023-12-22T01:55:27;3.80;99.90
37300;DHT22;23184;51.902;12.836;2023-12-22T01:57:52;3.80;99.90
37300;DHT22;23184;51.902;12.836;2023-12-22T02:00:18;3.90;99.90
37300;DHT22;23184;51.902;12.836;2023-12-22T02:02:44;3.90;99.90
37300;DHT22;23184;51.902;12.836;2023-12-22T02:05:10;3.90;99.90
37300;DHT22;23184;51.902;12.836;2023-12-22T02:07:38;3.80;99.90
37300;DHT22;23184;51.902;12.836;2023-12-22T02:10:08;3.80;99.90
37300;DHT22;23184;51.902;12.836;2023-12-22T02:12:34;3.70;99.90
37300;DHT22;23184;51.902;12.836;2023-12-22T02:15:00;3.70;99.90
37300;DHT22;23184;51.902;12.836;2023-12-22T02:17:43;3.70;99.90
37300;DHT22;23184;51.902;12.836;2023-12-22T02:20:12;3.70;99.90
37300;DHT22;23184;51.902;12.836;2023-12-22T02:22:38;3.70;99.90
37300;DHT22;23184;51.902;12.836;2023-12-22T02:25:04;3.60;99.90
37300;DHT22;23184;51.902;12.836;2023-12-22T02:27:48;3.60;99.90
37300;DHT22;23184;51.902;12.836;2023-12-22T02:32:56;3.60;99.90
37300;DHT22;23184;51.902;12.836;2023-12-22T02:35:26;3.60;99.90
37300;DHT22;23184;51.902;12.836;2023-12-22T02:37:54;3.50;99.90
37300;DHT22;23184;51.902;12.836;2023-12-22T02:40:22;3.50;99.90
37300;DHT22;23184;51.902;12.836;2023-12-22T02:42:47;3.40;99.90
37300;DHT22;23184;51.902;12.836;2023-12-22T02:45:17;3.40;99.90
37300;DHT22;23184;51.902;12.836;2023-12-22T02:47:44;3.40;99.90
37300;DHT22;23184;51.902;12.836;2023-12-22T02:50:10;3.40;99.90
37300;DHT22;23184;51.902;12.836;2023-12-22T02:52:37;3.40;99.90
37300;DHT22;23184;51.902;12.836;2023-12-22T02:55:04;3.50;99.90
37300;DHT22;23184;51.902;12.836;2023-12-22T02:57:30;3.60;99.90
37300;DHT22;23184;51.902;12.836;2023-12-22T02:59:56;3.70;99.90
37300;DHT22;23184;51.902;12.836;2023-12-22T03:02:22;3.70;99.90
37300;DHT22;23184;51.902;12.836;2023-12-22T03:04:47;3.80;99.90
37300;DHT22;23184;51.902;12.836;2023-12-22T03:07:13;3.90;99.90
37300;DHT22;23184;51.902;12.836;2023-12-22T03:09:39;3.90;99.90
37300;DHT22;23184;51.902;12.836;2023-12-22T03:12:06;3.90;99.90
37300;DHT22;23184;51.902;12.836;2023-12-22T03:14:32;3.90;99.90
37300;DHT22;23184;51.902;12.836;2023-12-22T03:17:02;3.80;99.90
37300;DHT22;23184;51.902;12.836;2023-12-22T03:19:29;3.80;99.90
37300;DHT22;23184;51.902;12.836;2023-12-22T03:21:54;3.80;99.90
37300;DHT22;23184;51.902;12.836;2023-12-22T03:24:20;3.70;99.90
37300;DHT22;23184;51.902;12.836;2023-12-22T03:26:47;3.60;99.90
37300;DHT22;23184;51.902;12.836;2023-12-22T03:29:13;3.60;99.90
37300;DHT22;23184;51.902;12.836;2023-12-22T03:31:38;3.50;99.90
37300;DHT22;23184;51.902;12.836;2023-12-22T03:34:04;3.40;99.90
37300;DHT22;23184;51.902;12.836;2023-12-22T03:36:29;3.40;99.90
37300;DHT22;23184;51.902;12.836;2023-12-22T03:38:55;3.40;99.90
37300;DHT22;23184;51.902;12.836;2023-12-22T03:41:20;3.40;99.90
37300;DHT22;23184;51.902;12.836;2023-12-22T03:43:46;3.40;99.90
37300;DHT22;23184;51.902;12.836;2023-12-22T03:46:11;3.40;99.90
37300;DHT22;23184;51.902;12.836;2023-12-22T03:48:37;3.50;99.90
37300;DHT22;23184;51.902;12.836;2023-12-22T03:51:02;3.50;99.90
37300;DHT22;23184;51.902;12.836;2023-12-22T03:53:28;3.50;99.90
37300;DHT22;23184;51.902;12.836;2023-12-22T03:55:54;3.50;99.90
37300;DHT22;23184;51.902;12.836;2023-12-22T03:58:20;3.40;99.90
37300;DHT22;23184;51.902;12.836;2023-12-22T04:00:45;3.50;99.90
37300;DHT22;23184;51.902;12.836;2023-12-22T04:03:10;3.40;99.90
37300;DHT22;23184;51.902;12.836;2023-12-22T04:05:36;3.50;99.90
37300;DHT22;23184;51.902;12.836;2023-12-22T04:08:01;3.60;99.90
37300;DHT22;23184;51.902;12.836;2023-12-22T04:10:27;3.60;99.90
37300;DHT22;23184;51.902;12.836;2023-12-22T04:12:53;3.60;99.90
37300;DHT22;23184;51.902;12.836;2023-12-22T04:15:18;3.70;99.90
37300;DHT22;23184;51.902;12.836;2023-12-22T04:17:44;3.70;99.90
37300;DHT22;23184;51.902;12.836;2023-12-22T04:20:09;3.60;99.90
37300;DHT22;23184;51.902;12.836;2023-12-22T04:22:35;3.60;99.90
37300;DHT22;23184;51.902;12.836;2023-12-22T04:25:00;3.60;99.90
37300;DHT22;23184;51.902;12.836;2023-12-22T04:27:26;3.60;99.90
37300;DHT22;23184;51.902;12.836;2023-12-22T04:29:51;3.60;99.90
37300;DHT22;23184;51.902;12.836;2023-12-22T04:32:17;3.60;99.90
37300;DHT22;23184;51.902;12.836;2023-12-22T04:34:42;3.60;99.90
37300;DHT22;23184;51.902;12.836;2023-12-22T04:37:08;3.60;99.90
37300;DHT22;23184;51.902;12.836;2023-12-22T04:39:34;3.60;99.90
37300;DHT22;23184;51.902;12.836;2023-12-22T04:41:59;3.70;99.90
37300;DHT22;23184;51.902;12.836;2023-12-22T04:44:25;3.70;99.90
37300;DHT22;23184;51.902;12.836;2023-12-22T04:46:51;3.80;99.90
37300;DHT22;23184;51.902;12.836;2023-12-22T04:49:16;3.80;99.90
37300;DHT22;23184;51.902;12.836;2023-12-22T04:51:42;3.80;99.90
37300;DHT22;23184;51.902;12.836;2023-12-22T04:54:08;3.80;99.90
37300;DHT22;23184;51.902;12.836;2023-12-22T04:56:33;4.00;99.90
37300;DHT22;23184;51.902;12.836;2023-12-22T04:58:59;4.00;99.90
37300;DHT22;23184;51.902;12.836;2023-12-22T05:01:24;4.00;99.90
37300;DHT22;23184;51.902;12.836;2023-12-22T05:03:50;4.00;99.90
37300;DHT22;23184;51.902;12.836;2023-12-22T05:06:15;4.00;99.90
37300;DHT22;23184;51.902;12.836;2023-12-22T05:08:41;4.00;99.90
37300;DHT22;23184;51.902;12.836;2023-12-22T05:11:06;4.00;99.90
37300;DHT22;23184;51.902;12.836;2023-12-22T05:13:31;4.00;99.90
37300;DHT22;23184;51.902;12.836;2023-12-22T05:15:57;4.10;99.90
37300;DHT22;23184;51.902;12.836;2023-12-22T05:18:25;4.10;99.90
37300;DHT22;23184;51.902;12.836;2023-12-22T05:20:51;4.10;99.90
37300;DHT22;23184;51.902;12.836;2023-12-22T05:23:18;4.20;99.90
37300;DHT22;23184;51.902;12.836;2023-12-22T05:25:43;4.10;99.90
37300;DHT22;23184;51.902;12.836;2023-12-22T05:28:09;4.20;99.90
37300;DHT22;23184;51.902;12.836;2023-12-22T05:30:36;4.30;99.90
37300;DHT22;23184;51.902;12.836;2023-12-22T05:33:01;4.30;99.90
37300;DHT22;23184;51.902;12.836;2023-12-22T05:35:27;4.20;99.90
37300;DHT22;23184;51.902;12.836;2023-12-22T05:37:52;4.30;99.90
37300;DHT22;23184;51.902;12.836;2023-12-22T05:40:18;4.20;99.90
37300;DHT22;23184;51.902;12.836;2023-12-22T05:42:44;4.20;99.90
37300;DHT22;23184;51.902;12.836;2023-12-22T05:45:10;4.20;99.90
37300;DHT22;23184;51.902;12.836;2023-12-22T05:47:36;4.20;99.90
37300;DHT22;23184;51.902;12.836;2023-12-22T05:50:03;4.10;99.90
37300;DHT22;23184;51.902;12.836;2023-12-22T05:52:29;4.10;99.90
37300;DHT22;23184;51.902;12.836;2023-12-22T05:54:54;4.00;99.90
37300;DHT22;23184;51.902;12.836;2023-12-22T05:57:20;4.10;99.90
37300;DHT22;23184;51.902;12.836;2023-12-22T05:59:45;4.00;99.90
37300;DHT22;23184;51.902;12.836;2023-12-22T06:02:11;4.00;99.90
37300;DHT22;23184;51.902;12.836;2023-12-22T06:04:36;4.00;99.90
37300;DHT22;23184;51.902;12.836;2023-12-22T06:07:02;3.80;99.90
37300;DHT22;23184;51.902;12.836;2023-12-22T06:09:28;3.20;99.90
37300;DHT22;23184;51.902;12.836;2023-12-22T06:11:53;2.70;99.90
37300;DHT22;23184;51.902;12.836;2023-12-22T06:14:19;2.40;99.90
37300;DHT22;23184;51.902;12.836;2023-12-22T06:16:44;2.10;99.90
37300;DHT22;23184;51.902;12.836;2023-12-22T06:19:10;2.00;99.90
37300;DHT22;23184;51.902;12.836;2023-12-22T06:21:39;1.90;99.90
37300;DHT22;23184;51.902;12.836;2023-12-22T06:24:05;1.90;99.90
37300;DHT22;23184;51.902;12.836;2023-12-22T06:26:30;1.80;99.90
37300;DHT22;23184;51.902;12.836;2023-12-22T06:28:56;1.80;99.90
37300;DHT22;23184;51.902;12.836;2023-12-22T06:31:21;1.80;99.90
37300;DHT22;23184;51.902;12.836;2023-12-22T06:33:48;2.00;99.90
37300;DHT22;23184;51.902;12.836;2023-12-22T06:36:21;2.00;99.90
37300;DHT22;23184;51.902;12.836;2023-12-22T06:38:50;2.10;99.90
37300;DHT22;23184;51.902;12.836;2023-12-22T06:41:34;2.10;99.90
37300;DHT22;23184;51.902;12.836;2023-12-22T06:44:00;2.10;99.90
37300;DHT22;23184;51.902;12.836;2023-12-22T06:46:26;2.10;99.90
37300;DHT22;23184;51.902;12.836;2023-12-22T06:48:52;2.20;99.90
37300;DHT22;23184;51.902;12.836;2023-12-22T06:51:27;2.20;99.90
37300;DHT22;23184;51.902;12.836;2023-12-22T06:53:53;2.30;99.90
37300;DHT22;23184;51.902;12.836;2023-12-22T06:56:21;2.30;99.90
37300;DHT22;23184;51.902;12.836;2023-12-22T06:58:52;2.30;99.90
37300;DHT22;23184;51.902;12.836;2023-12-22T07:01:25;2.40;99.90
37300;DHT22;23184;51.902;12.836;2023-12-22T07:03:51;2.60;99.90
37300;DHT22;23184;51.902;12.836;2023-12-22T07:06:20;2.70;99.90
37300;DHT22;23184;51.902;12.836;2023-12-22T07:11:57;3.00;99.90
37300;DHT22;23184;51.902;12.836;2023-12-22T07:14:24;3.10;99.90
37300;DHT22;23184;51.902;12.836;2023-12-22T07:16:49;3.10;99.90
37300;DHT22;23184;51.902;12.836;2023-12-22T07:19:15;3.10;99.90
37300;DHT22;23184;51.902;12.836;2023-12-22T07:21:41;3.20;99.90
37300;DHT22;23184;51.902;12.836;2023-12-22T07:24:07;3.30;99.90
37300;DHT22;23184;51.902;12.836;2023-12-22T07:26:32;3.30;99.90
37300;DHT22;23184;51.902;12.836;2023-12-22T07:28:58;3.40;99.90
37300;DHT22;23184;51.902;12.836;2023-12-22T07:31:24;3.50;99.90
37300;DHT22;23184;51.902;12.836;2023-12-22T07:33:50;3.60;99.90
37300;DHT22;23184;51.902;12.836;2023-12-22T07:36:15;3.60;99.90
37300;DHT22;23184;51.902;12.836;2023-12-22T07:38:41;3.70;99.90
37300;DHT22;23184;51.902;12.836;2023-12-22T07:41:07;3.70;99.90
37300;DHT22;23184;51.902;12.836;2023-12-22T07:43:33;3.70;99.90
37300;DHT22;23184;51.902;12.836;2023-12-22T07:45:58;3.70;99.90
37300;DHT22;23184;51.902;12.836;2023-12-22T07:48:24;3.70;99.90
37300;DHT22;23184;51.902;12.836;2023-12-22T07:50:50;3.60;99.90
37300;DHT22;23184;51.902;12.836;2023-12-22T07:53:15;3.60;99.90
37300;DHT22;23184;51.902;12.836;2023-12-22T07:55:41;3.50;99.90
37300;DHT22;23184;51.902;12.836;2023-12-22T07:58:07;3.40;99.90
37300;DHT22;23184;51.902;12.836;2023-12-22T08:00:33;3.20;99.90
37300;DHT22;23184;51.902;12.836;2023-12-22T08:02:59;3.20;99.90
37300;DHT22;23184;51.902;12.836;2023-12-22T08:05:25;3.10;99.90
37300;DHT22;23184;51.902;12.836;2023-12-22T08:07:50;3.10;99.90
37300;DHT22;23184;51.902;12.836;2023-12-22T08:10:16;3.20;99.90
37300;DHT22;23184;51.902;12.836;2023-12-22T08:12:42;3.20;99.90
37300;DHT22;23184;51.902;12.836;2023-12-22T08:15:08;3.20;99.90
37300;DHT22;23184;51.902;12.836;2023-12-22T08:17:37;3.10;99.90
37300;DHT22;23184;51.902;12.836;2023-12-22T08:20:04;3.00;99.90
37300;DHT22;23184;51.902;12.836;2023-12-22T08:22:29;3.00;99.90
37300;DHT22;23184;51.902;12.836;2023-12-22T08:24:55;3.00;99.90
37300;DHT22;23184;51.902;12.836;2023-12-22T08:27:20;3.00;99.90
37300;DHT22;23184;51.902;12.836;2023-12-22T08:29:46;3.00;99.90
37300;DHT22;23184;51.902;12.836;2023-12-22T08:32:11;3.10;99.90
37300;DHT22;23184;51.902;12.836;2023-12-22T08:34:37;3.10;99.90
37300;DHT22;23184;51.902;12.836;2023-12-22T08:37:02;3.20;99.90
37300;DHT22;23184;51.902;12.836;2023-12-22T08:39:28;3.10;99.90
37300;DHT22;23184;51.902;12.836;2023-12-22T08:41:54;2.90;99.90
37300;DHT22;23184;51.902;12.836;2023-12-22T08:44:19;2.70;99.90
37300;DHT22;23184;51.902;12.836;2023-12-22T08:46:45;2.50;99.90
37300;DHT22;23184;51.902;12.836;2023-12-22T08:49:10;2.40;99.90
37300;DHT22;23184;51.902;12.836;2023-12-22T08:51:36;2.40;99.90
37300;DHT22;23184;51.902;12.836;2023-12-22T08:54:02;2.50;99.90
37300;DHT22;23184;51.902;12.836;2023-12-22T08:56:29;2.60;99.90
37300;DHT22;23184;51.902;12.836;2023-12-22T08:58:55;2.70;99.90
37300;DHT22;23184;51.902;12.836;2023-12-22T09:01:21;2.80;99.90
37300;DHT22;23184;51.902;12.836;2023-12-22T09:03:47;2.90;99.90
37300;DHT22;23184;51.902;12.836;2023-12-22T09:06:17;2.90;99.90
37300;DHT22;23184;51.902;12.836;2023-12-22T09:08:43;3.00;99.90
37300;DHT22;23184;51.902;12.836;2023-12-22T09:11:15;3.20;99.90
37300;DHT22;23184;51.902;12.836;2023-12-22T09:13:41;3.10;99.90
37300;DHT22;23184;51.902;12.836;2023-12-22T09:16:07;3.10;99.90
37300;DHT22;23184;51.902;12.836;2023-12-22T09:18:33;3.10;99.90
37300;DHT22;23184;51.902;12.836;2023-12-22T09:20:58;3.00;99.90
37300;DHT22;23184;51.902;12.836;2023-12-22T09:23:24;3.00;99.90
37300;DHT22;23184;51.902;12.836;2023-12-22T09:25:50;2.90;99.90
37300;DHT22;23184;51.902;12.836;2023-12-22T09:28:16;2.90;99.90
37300;DHT22;23184;51.902;12.836;2023-12-22T09:30:41;3.00;99.90
37300;DHT22;23184;51.902;12.836;2023-12-22T09:33:10;3.00;99.90
37300;DHT22;23184;51.902;12.836;2023-12-22T09:35:36;3.00;99.90
37300;DHT22;23184;51.902;12.836;2023-12-22T09:38:02;3.00;99.90
37300;DHT22;23184;51.902;12.836;2023-12-22T09:40:28;3.00;99.90
37300;DHT22;23184;51.902;12.836;2023-12-22T09:42:55;3.00;99.90
37300;DHT22;23184;51.902;12.836;2023-12-22T09:45:21;3.10;99.90
37300;DHT22;23184;51.902;12.836;2023-12-22T09:47:48;3.10;99.90
37300;DHT22;23184;51.902;12.836;2023-12-22T09:50:15;3.20;99.90
37300;DHT22;23184;51.902;12.836;2023-12-22T09:52:42;3.30;99.90
37300;DHT22;23184;51.902;12.836;2023-12-22T09:55:09;3.40;99.90
37300;DHT22;23184;51.902;12.836;2023-12-22T09:57:37;3.40;99.90
37300;DHT22;23184;51.902;12.836;2023-12-22T10:00:09;3.40;99.90
37300;DHT22;23184;51.902;12.836;2023-12-22T10:02:36;3.50;99.90
37300;DHT22;23184;51.902;12.836;2023-12-22T10:05:02;3.60;99.90
37300;DHT22;23184;51.902;12.836;2023-12-22T10:07:28;3.60;99.90
37300;DHT22;23184;51.902;12.836;2023-12-22T10:09:55;3.70;99.90
37300;DHT22;23184;51.902;12.836;2023-12-22T10:12:22;3.80;99.90
37300;DHT22;23184;51.902;12.836;2023-12-22T10:14:48;3.90;99.90
37300;DHT22;23184;51.902;12.836;2023-12-22T10:17:15;3.90;99.90
37300;DHT22;23184;51.902;12.836;2023-12-22T10:19:40;3.70;99.90
37300;DHT22;23184;51.902;12.836;2023-12-22T10:22:06;3.60;99.90
37300;DHT22;23184;51.902;12.836;2023-12-22T10:24:46;3.40;99.90
37300;DHT22;23184;51.902;12.836;2023-12-22T10:27:14;3.50;99.90
37300;DHT22;23184;51.902;12.836;2023-12-22T10:29:40;3.40;99.90
37300;DHT22;23184;51.902;12.836;2023-12-22T10:32:06;3.40;99.90
37300;DHT22;23184;51.902;12.836;2023-12-22T10:34:32;3.30;99.90
37300;DHT22;23184;51.902;12.836;2023-12-22T10:37:01;3.30;99.90
37300;DHT22;23184;51.902;12.836;2023-12-22T10:39:31;3.30;99.90
37300;DHT22;23184;51.902;12.836;2023-12-22T10:41:57;3.40;99.90
37300;DHT22;23184;51.902;12.836;2023-12-22T10:44:27;3.60;99.90
37300;DHT22;23184;51.902;12.836;2023-12-22T10:46:53;3.60;99.90
37300;DHT22;23184;51.902;12.836;2023-12-22T10:49:20;3.60;99.90
37300;DHT22;23184;51.902;12.836;2023-12-22T10:51:46;3.60;99.90
37300;DHT22;23184;51.902;12.836;2023-12-22T10:54:11;3.70;99.90
37300;DHT22;23184;51.902;12.836;2023-12-22T10:56:37;3.80;99.90
37300;DHT22;23184;51.902;12.836;2023-12-22T10:59:02;3.80;99.90
37300;DHT22;23184;51.902;12.836;2023-12-22T11:01:30;3.80;99.90
37300;DHT22;23184;51.902;12.836;2023-12-22T11:04:02;3.80;99.90
37300;DHT22;23184;51.902;12.836;2023-12-22T11:06:34;3.70;99.90
37300;DHT22;23184;51.902;12.836;2023-12-22T11:09:00;3.70;99.90
37300;DHT22;23184;51.902;12.836;2023-12-22T11:11:33;3.60;99.90
37300;DHT22;23184;51.902;12.836;2023-12-22T11:14:00;3.60;99.90
37300;DHT22;23184;51.902;12.836;2023-12-22T11:16:28;3.60;99.90
37300;DHT22;23184;51.902;12.836;2023-12-22T11:18:54;3.60;99.90
37300;DHT22;23184;51.902;12.836;2023-12-22T11:21:22;3.70;99.90
37300;DHT22;23184;51.902;12.836;2023-12-22T11:23:49;3.70;99.90
37300;DHT22;23184;51.902;12.836;2023-12-22T11:26:17;3.80;99.90
37300;DHT22;23184;51.902;12.836;2023-12-22T11:28:42;3.90;99.90
37300;DHT22;23184;51.902;12.836;2023-12-22T11:31:10;3.90;99.90
37300;DHT22;23184;51.902;12.836;2023-12-22T11:33:36;4.00;99.90
37300;DHT22;23184;51.902;12.836;2023-12-22T11:36:03;4.10;99.90
37300;DHT22;23184;51.902;12.836;2023-12-22T11:38:30;4.20;99.90
37300;DHT22;23184;51.902;12.836;2023-12-22T11:40:57;4.20;99.90
37300;DHT22;23184;51.902;12.836;2023-12-22T11:43:23;4.20;99.90
37300;DHT22;23184;51.902;12.836;2023-12-22T11:45:52;4.20;99.90
37300;DHT22;23184;51.902;12.836;2023-12-22T11:48:17;4.30;99.90
37300;DHT22;23184;51.902;12.836;2023-12-22T11:50:43;4.30;99.90
37300;DHT22;23184;51.902;12.836;2023-12-22T11:56:04;4.30;99.90
37300;DHT22;23184;51.902;12.836;2023-12-22T12:01:01;4.20;99.90
37300;DHT22;23184;51.902;12.836;2023-12-22T12:03:30;4.20;99.90
37300;DHT22;23184;51.902;12.836;2023-12-22T12:08:47;4.20;99.90
37300;DHT22;23184;51.902;12.836;2023-12-22T12:11:14;4.30;99.90
37300;DHT22;23184;51.902;12.836;2023-12-22T12:13:44;4.30;99.90
37300;DHT22;23184;51.902;12.836;2023-12-22T12:16:19;4.40;99.90
37300;DHT22;23184;51.902;12.836;2023-12-22T12:18:47;4.50;99.90
37300;DHT22;23184;51.902;12.836;2023-12-22T12:21:12;4.60;99.90
37300;DHT22;23184;51.902;12.836;2023-12-22T12:23:38;4.70;99.90
37300;DHT22;23184;51.902;12.836;2023-12-22T12:26:06;4.80;99.90
37300;DHT22;23184;51.902;12.836;2023-12-22T12:28:33;4.90;99.90
37300;DHT22;23184;51.902;12.836;2023-12-22T12:31:03;5.00;99.90
37300;DHT22;23184;51.902;12.836;2023-12-22T12:33:29;5.10;99.90
37300;DHT22;23184;51.902;12.836;2023-12-22T12:36:02;5.10;99.90
37300;DHT22;23184;51.902;12.836;2023-12-22T12:38:53;5.10;99.90
37300;DHT22;23184;51.902;12.836;2023-12-22T12:41:29;5.00;99.90
37300;DHT22;23184;51.902;12.836;2023-12-22T12:43:58;4.90;99.90
37300;DHT22;23184;51.902;12.836;2023-12-22T12:46:45;4.90;99.90
37300;DHT22;23184;51.902;12.836;2023-12-22T12:49:10;4.80;99.90
37300;DHT22;23184;51.902;12.836;2023-12-22T12:51:47;4.70;99.90
37300;DHT22;23184;51.902;12.836;2023-12-22T12:54:13;4.70;99.90
37300;DHT22;23184;51.902;12.836;2023-12-22T12:56:40;4.60;99.90
37300;DHT22;23184;51.902;12.836;2023-12-22T12:59:09;4.50;99.90
37300;DHT22;23184;51.902;12.836;2023-12-22T13:01:42;4.30;99.90
37300;DHT22;23184;51.902;12.836;2023-12-22T13:04:09;4.30;99.90
37300;DHT22;23184;51.902;12.836;2023-12-22T13:06:34;4.20;99.90
37300;DHT22;23184;51.902;12.836;2023-12-22T13:09:00;4.10;99.90
37300;DHT22;23184;51.902;12.836;2023-12-22T13:11:27;4.10;99.90
37300;DHT22;23184;51.902;12.836;2023-12-22T13:13:54;4.00;99.90
37300;DHT22;23184;51.902;12.836;2023-12-22T13:16:20;4.00;99.90
37300;DHT22;23184;51.902;12.836;2023-12-22T13:18:46;3.90;99.90
37300;DHT22;23184;51.902;12.836;2023-12-22T13:21:12;3.90;99.90
37300;DHT22;23184;51.902;12.836;2023-12-22T13:23:38;3.90;99.90
37300;DHT22;23184;51.902;12.836;2023-12-22T13:26:04;3.90;99.90
37300;DHT22;23184;51.902;12.836;2023-12-22T13:28:29;3.90;99.90
37300;DHT22;23184;51.902;12.836;2023-12-22T13:30:55;3.80;99.90
37300;DHT22;23184;51.902;12.836;2023-12-22T13:33:21;3.70;99.90
37300;DHT22;23184;51.902;12.836;2023-12-22T13:35:47;3.60;99.90
37300;DHT22;23184;51.902;12.836;2023-12-22T13:38:13;3.50;99.90
37300;DHT22;23184;51.902;12.836;2023-12-22T13:40:44;3.40;99.90
37300;DHT22;23184;51.902;12.836;2023-12-22T13:43:09;3.30;99.90
37300;DHT22;23184;51.902;12.836;2023-12-22T13:45:35;3.20;99.90
37300;DHT22;23184;51.902;12.836;2023-12-22T13:48:01;3.10;99.90
37300;DHT22;23184;51.902;12.836;2023-12-22T13:50:26;3.00;99.90
37300;DHT22;23184;51.902;12.836;2023-12-22T13:52:52;3.00;99.90
37300;DHT22;23184;51.902;12.836;2023-12-22T13:55:19;2.90;99.90
37300;DHT22;23184;51.902;12.836;2023-12-22T13:57:44;2.90;99.90
37300;DHT22;23184;51.902;12.836;2023-12-22T14:02:45;2.90;99.90
37300;DHT22;23184;51.902;12.836;2023-12-22T14:05:11;2.80;99.90
37300;DHT22;23184;51.902;12.836;2023-12-22T14:07:37;2.80;99.90
37300;DHT22;23184;51.902;12.836;2023-12-22T14:10:06;2.80;99.90
37300;DHT22;23184;51.902;12.836;2023-12-22T14:12:32;2.80;99.90
37300;DHT22;23184;51.902;12.836;2023-12-22T14:14:57;2.80;99.90
37300;DHT22;23184;51.902;12.836;2023-12-22T14:17:23;2.80;99.90
37300;DHT22;23184;51.902;12.836;2023-12-22T14:19:48;2.90;99.90
37300;DHT22;23184;51.902;12.836;2023-12-22T14:22:15;2.90;99.90
37300;DHT22;23184;51.902;12.836;2023-12-22T14:24:40;2.90;99.90
37300;DHT22;23184;51.902;12.836;2023-12-22T14:27:06;2.90;99.90
37300;DHT22;23184;51.902;12.836;2023-12-22T14:29:31;2.90;99.90
37300;DHT22;23184;51.902;12.836;2023-12-22T14:31:58;3.00;99.90
37300;DHT22;23184;51.902;12.836;2023-12-22T14:34:24;3.00;99.90
37300;DHT22;23184;51.902;12.836;2023-12-22T14:36:49;3.00;99.90
37300;DHT22;23184;51.902;12.836;2023-12-22T14:39:15;3.00;99.90
37300;DHT22;23184;51.902;12.836;2023-12-22T14:41:40;3.00;99.90
37300;DHT22;23184;51.902;12.836;2023-12-22T14:44:08;3.00;99.90
37300;DHT22;23184;51.902;12.836;2023-12-22T14:46:36;3.00;99.90
37300;DHT22;23184;51.902;12.836;2023-12-22T14:49:02;3.00;99.90
37300;DHT22;23184;51.902;12.836;2023-12-22T14:51:27;3.10;99.90
37300;DHT22;23184;51.902;12.836;2023-12-22T14:53:53;3.10;99.90
37300;DHT22;23184;51.902;12.836;2023-12-22T14:56:18;3.10;99.90
37300;DHT22;23184;51.902;12.836;2023-12-22T14:58:44;3.20;99.90
37300;DHT22;23184;51.902;12.836;2023-12-22T15:01:13;3.20;99.90
37300;DHT22;23184;51.902;12.836;2023-12-22T15:03:39;3.20;99.90
37300;DHT22;23184;51.902;12.836;2023-12-22T15:06:04;3.30;99.90
37300;DHT22;23184;51.902;12.836;2023-12-22T15:08:30;3.40;99.90
37300;DHT22;23184;51.902;12.836;2023-12-22T15:10:55;3.40;99.90
37300;DHT22;23184;51.902;12.836;2023-12-22T15:13:21;3.50;99.90
37300;DHT22;23184;51.902;12.836;2023-12-22T15:15:46;3.50;99.90
37300;DHT22;23184;51.902;12.836;2023-12-22T15:18:12;3.60;99.90
37300;DHT22;23184;51.902;12.836;2023-12-22T15:20:37;3.60;99.90
37300;DHT22;23184;51.902;12.836;2023-12-22T15:23:03;3.60;99.90
37300;DHT22;23184;51.902;12.836;2023-12-22T15:25:29;3.60;99.90
37300;DHT22;23184;51.902;12.836;2023-12-22T15:27:54;3.60;99.90
37300;DHT22;23184;51.902;12.836;2023-12-22T15:30:19;3.60;99.90
37300;DHT22;23184;51.902;12.836;2023-12-22T15:32:45;3.60;99.90
37300;DHT22;23184;51.902;12.836;2023-12-22T15:35:10;3.60;99.90
37300;DHT22;23184;51.902;12.836;2023-12-22T15:37:36;3.60;99.90
37300;DHT22;23184;51.902;12.836;2023-12-22T15:40:03;3.60;99.90
37300;DHT22;23184;51.902;12.836;2023-12-22T15:42:29;3.60;99.90